Pagina principale
METAR-TAF:

METAR-TAF

Aeroporti :

Monte Argentario, Italia

latitudine: 42-23N, longitudine: 011-10E, altezza: 630 m

Osservazione

Il bollettino è stato emesso 1 ora e 18 minuti fa, alle 08:55 UTC
Vento 15 kt da sud-est
Temperature 16°C
Umidità 94%
Pressione 1017 hPa
Visibilità minore di 50 m
nebbia

METAR: LIQO 170855Z 13015KT 0000 FG VV/// 16/15 Q1017 RMK VAL INVIS NC VIS MIN 0000

Ora: 12:13 (10:13 UTC)


TAF: mancante

Osservazioni e previsioni meteorologiche di più di 4000 aeroporti (messaggi METAR e TAF).

Le stazioni disponibili sono rappresentate dai dischi gialli e rossi sulla carta.

Puntare il mouse per vedere il nome della stazione.

Clicca sopra per visualizzare le osservazioni e previsioni meteorologiche.

Per cambiare la mappa : fare clic sui pulsanti verdi con una croce nera per ingrandire, il pulsante verde con un trattino per diminuire, o sulla freccia verde per le mappe adiacenti.


METAR-TAF: